createdAt,value
2019-03-30T00:01:34.001Z,99.90
2019-03-30T00:03:39.315Z,99.90
2019-03-30T00:05:44.588Z,99.90
2019-03-30T00:07:50.364Z,99.90
2019-03-30T00:09:55.731Z,99.90
2019-03-30T00:12:01.059Z,99.90
2019-03-30T00:14:06.458Z,99.90
2019-03-30T00:16:11.815Z,99.90
2019-03-30T00:18:17.148Z,99.90
2019-03-30T00:20:22.827Z,99.90
2019-03-30T00:22:28.272Z,99.90
2019-03-30T00:24:33.892Z,99.90
2019-03-30T00:26:39.990Z,99.90
2019-03-30T00:28:45.570Z,99.90
2019-03-30T00:30:50.859Z,99.90
2019-03-30T00:32:56.306Z,99.90
2019-03-30T00:35:01.636Z,99.90
2019-03-30T00:37:06.948Z,99.90
2019-03-30T00:39:12.237Z,99.90
2019-03-30T00:41:17.817Z,99.90
2019-03-30T00:43:23.138Z,99.90
2019-03-30T00:45:28.412Z,99.90
2019-03-30T00:47:33.687Z,99.90
2019-03-30T00:49:49.140Z,99.90
2019-03-30T00:51:46.635Z,99.90
2019-03-30T00:53:51.972Z,99.90
2019-03-30T00:55:57.266Z,99.90
2019-03-30T00:58:02.682Z,99.90
2019-03-30T01:00:08.500Z,99.90
2019-03-30T01:02:13.744Z,99.90
2019-03-30T01:04:19.030Z,99.90
2019-03-30T01:06:24.477Z,99.90
2019-03-30T01:08:30.067Z,99.90
2019-03-30T01:10:35.694Z,99.90
2019-03-30T01:12:41.004Z,99.90
2019-03-30T01:14:46.306Z,99.90
2019-03-30T01:16:51.600Z,99.90
2019-03-30T01:18:56.873Z,99.90
2019-03-30T01:21:02.467Z,99.90
2019-03-30T01:23:07.773Z,99.90
2019-03-30T01:25:13.513Z,99.90
2019-03-30T01:27:19.127Z,99.90
2019-03-30T01:29:24.437Z,99.90
2019-03-30T01:31:29.707Z,99.90
2019-03-30T01:33:35.016Z,99.90
2019-03-30T01:35:40.500Z,99.90
2019-03-30T01:37:45.827Z,99.90
2019-03-30T01:39:51.162Z,99.90
2019-03-30T01:41:56.410Z,99.90
2019-03-30T01:44:01.749Z,99.90
2019-03-30T01:46:07.002Z,99.90
2019-03-30T01:48:12.244Z,99.90
2019-03-30T01:50:18.237Z,99.90
2019-03-30T01:52:23.591Z,99.90
2019-03-30T01:54:29.260Z,99.90
2019-03-30T01:56:34.616Z,99.90
2019-03-30T01:58:40.180Z,99.90
2019-03-30T02:00:45.918Z,99.90
2019-03-30T02:02:51.182Z,99.90
2019-03-30T02:04:56.617Z,99.90
2019-03-30T02:07:01.969Z,99.90
2019-03-30T02:09:07.957Z,99.90
2019-03-30T02:11:13.234Z,99.90
2019-03-30T02:13:18.577Z,99.90
2019-03-30T02:15:24.197Z,99.90
2019-03-30T02:17:29.527Z,99.90
2019-03-30T02:19:35.144Z,99.90
2019-03-30T02:21:40.723Z,99.90
2019-03-30T02:23:46.387Z,99.90
2019-03-30T02:25:51.660Z,99.90
2019-03-30T02:27:57.070Z,99.90
2019-03-30T02:30:02.426Z,99.90
2019-03-30T02:32:07.733Z,99.90
2019-03-30T02:34:13.057Z,99.90
2019-03-30T02:36:18.337Z,99.90
2019-03-30T02:38:23.583Z,99.90
2019-03-30T02:40:28.900Z,99.90
2019-03-30T02:42:34.174Z,99.90
2019-03-30T02:44:39.466Z,99.90
2019-03-30T02:46:44.779Z,99.90
2019-03-30T02:48:50.438Z,99.90
2019-03-30T02:50:55.744Z,99.90
2019-03-30T02:53:01.052Z,99.90
2019-03-30T02:55:06.327Z,99.90
2019-03-30T02:57:11.629Z,99.90
2019-03-30T02:59:16.920Z,99.90
2019-03-30T03:01:22.190Z,99.90
2019-03-30T03:03:27.507Z,99.90
2019-03-30T03:05:32.755Z,99.90
2019-03-30T03:07:38.048Z,99.90
2019-03-30T03:09:43.346Z,99.90
2019-03-30T03:11:48.615Z,99.90
2019-03-30T03:13:53.926Z,99.90
2019-03-30T03:15:59.317Z,99.90
2019-03-30T03:18:04.599Z,99.90
2019-03-30T03:20:10.107Z,99.90
2019-03-30T03:22:15.697Z,99.90
2019-03-30T03:24:21.472Z,99.90
2019-03-30T03:26:27.118Z,99.90
2019-03-30T03:28:32.788Z,99.90
2019-03-30T03:30:38.074Z,99.90
2019-03-30T03:32:43.804Z,99.90
2019-03-30T03:34:49.088Z,99.90
2019-03-30T03:36:54.373Z,99.90
2019-03-30T03:38:59.887Z,99.90
2019-03-30T03:41:05.189Z,99.90
2019-03-30T03:43:10.903Z,99.90
2019-03-30T03:45:16.269Z,99.90
2019-03-30T03:47:21.902Z,99.90
2019-03-30T03:49:27.190Z,99.90
2019-03-30T03:51:33.074Z,99.90
2019-03-30T03:53:38.779Z,99.90
2019-03-30T03:55:45.146Z,99.90
2019-03-30T03:57:50.671Z,99.90
2019-03-30T03:59:58.364Z,99.90
2019-03-30T04:02:04.744Z,99.90
2019-03-30T04:04:11.626Z,99.90
2019-03-30T04:06:19.885Z,99.90
2019-03-30T04:08:27.791Z,99.90
2019-03-30T04:10:36.380Z,99.90
2019-03-30T04:12:43.844Z,99.90
2019-03-30T04:14:52.757Z,99.90
2019-03-30T04:16:58.022Z,99.90
2019-03-30T04:19:03.292Z,99.90
2019-03-30T04:21:08.615Z,99.90
2019-03-30T04:23:14.335Z,99.90
2019-03-30T04:25:19.642Z,99.90
2019-03-30T04:27:24.987Z,99.90
2019-03-30T04:29:30.274Z,99.90
2019-03-30T04:31:35.701Z,99.90
2019-03-30T04:33:40.991Z,99.90
2019-03-30T04:35:46.316Z,99.90
2019-03-30T04:37:52.078Z,99.90
2019-03-30T04:39:57.727Z,99.90
2019-03-30T04:42:03.330Z,99.90
2019-03-30T04:44:08.668Z,99.90
2019-03-30T04:46:13.946Z,99.90
2019-03-30T04:48:19.577Z,99.90
2019-03-30T04:50:24.840Z,99.90
2019-03-30T04:52:30.136Z,99.90
2019-03-30T04:54:35.477Z,99.90
2019-03-30T04:56:40.820Z,99.90
2019-03-30T04:58:46.423Z,99.90
2019-03-30T05:00:51.727Z,99.90
2019-03-30T05:02:57.305Z,99.90
2019-03-30T05:05:02.829Z,99.90
2019-03-30T05:07:08.140Z,99.90
2019-03-30T05:09:13.696Z,99.90
2019-03-30T05:11:19.012Z,99.90
2019-03-30T05:13:24.634Z,99.90
2019-03-30T05:15:29.915Z,99.90
2019-03-30T05:17:47.030Z,99.90
2019-03-30T05:19:42.526Z,99.90
2019-03-30T05:21:48.285Z,99.90
2019-03-30T05:23:53.642Z,99.90
2019-03-30T05:25:59.246Z,99.90
2019-03-30T05:28:04.564Z,99.90
2019-03-30T05:30:11.515Z,99.90
2019-03-30T05:32:17.132Z,99.90
2019-03-30T05:34:22.489Z,99.90
2019-03-30T05:36:28.139Z,99.90
2019-03-30T05:38:33.478Z,99.90
2019-03-30T05:40:38.831Z,99.90
2019-03-30T05:42:44.091Z,99.90
2019-03-30T05:44:49.418Z,99.90
2019-03-30T05:46:54.828Z,99.90
2019-03-30T05:49:00.107Z,99.90
2019-03-30T05:51:05.485Z,99.90
2019-03-30T05:53:10.814Z,99.90
2019-03-30T05:55:16.156Z,99.90
2019-03-30T05:57:21.593Z,99.90
2019-03-30T05:59:27.248Z,99.90
2019-03-30T06:01:32.644Z,99.90
2019-03-30T06:03:37.894Z,99.90
2019-03-30T06:05:43.366Z,99.90
2019-03-30T06:07:48.814Z,99.90
2019-03-30T06:09:54.163Z,99.90
2019-03-30T06:11:59.531Z,99.90
2019-03-30T06:14:04.865Z,99.90
2019-03-30T06:16:10.124Z,99.90
2019-03-30T06:18:15.583Z,99.90
2019-03-30T06:20:20.872Z,99.90
2019-03-30T06:22:39.535Z,99.90
2019-03-30T06:24:33.478Z,99.90
2019-03-30T06:26:38.799Z,99.90
2019-03-30T06:28:44.667Z,99.90
2019-03-30T06:30:50.017Z,99.90
2019-03-30T06:32:55.607Z,99.90
2019-03-30T06:35:02.035Z,99.90
2019-03-30T06:37:08.124Z,99.90
2019-03-30T06:39:16.174Z,99.90
2019-03-30T06:41:22.883Z,99.90
2019-03-30T06:43:28.132Z,99.90
2019-03-30T06:45:34.236Z,99.90
2019-03-30T06:47:39.563Z,99.90
2019-03-30T06:49:44.921Z,99.90
2019-03-30T06:51:50.284Z,99.90
2019-03-30T06:53:55.980Z,99.90
2019-03-30T06:56:01.302Z,99.90
2019-03-30T06:58:07.143Z,99.90
2019-03-30T07:00:12.773Z,99.40
2019-03-30T07:02:18.210Z,98.30
2019-03-30T07:04:23.579Z,97.20
2019-03-30T07:06:30.398Z,96.90
2019-03-30T07:08:36.632Z,96.40
2019-03-30T07:10:43.476Z,95.00
2019-03-30T07:12:50.306Z,94.10
2019-03-30T07:14:58.674Z,94.10
2019-03-30T07:17:05.204Z,93.90
2019-03-30T07:19:12.038Z,92.30
2019-03-30T07:21:17.408Z,90.90
2019-03-30T07:23:23.237Z,90.80
2019-03-30T07:25:28.606Z,89.80
2019-03-30T07:27:35.290Z,89.90
2019-03-30T07:29:40.591Z,88.30
2019-03-30T07:31:46.418Z,85.80
2019-03-30T07:33:51.647Z,85.30
2019-03-30T07:35:56.991Z,83.80
2019-03-30T07:38:03.120Z,81.80
2019-03-30T07:40:08.901Z,78.60
2019-03-30T07:42:14.599Z,79.00
2019-03-30T07:44:20.158Z,75.50
2019-03-30T07:46:25.535Z,74.40
2019-03-30T07:48:34.467Z,72.90
2019-03-30T07:50:40.073Z,71.40
2019-03-30T07:52:45.618Z,71.10
2019-03-30T07:54:50.976Z,68.50
2019-03-30T07:57:05.077Z,67.60
2019-03-30T07:59:03.622Z,68.80
2019-03-30T08:01:08.971Z,66.00
2019-03-30T08:03:14.305Z,65.70
2019-03-30T08:05:19.694Z,64.40
2019-03-30T08:07:25.068Z,66.30
2019-03-30T08:09:30.543Z,66.50
2019-03-30T08:11:36.029Z,69.40
2019-03-30T08:13:41.369Z,71.30
2019-03-30T08:15:46.696Z,70.70
2019-03-30T08:17:52.000Z,71.50
2019-03-30T08:20:00.115Z,69.30
2019-03-30T08:22:06.014Z,73.20
2019-03-30T08:24:12.359Z,73.40
2019-03-30T08:26:18.113Z,70.80
2019-03-30T08:28:23.598Z,72.30
2019-03-30T08:30:28.963Z,71.80
2019-03-30T08:32:34.865Z,71.50
2019-03-30T08:34:40.738Z,72.40
2019-03-30T08:36:46.054Z,71.30
2019-03-30T08:38:53.131Z,69.50
2019-03-30T08:40:58.745Z,71.20
2019-03-30T08:43:04.041Z,70.70
2019-03-30T08:45:10.248Z,69.60
2019-03-30T08:47:15.686Z,69.00
2019-03-30T08:49:21.059Z,69.10
2019-03-30T08:51:26.458Z,69.10
2019-03-30T08:53:31.763Z,69.50
2019-03-30T08:55:37.061Z,70.30
2019-03-30T08:57:42.849Z,70.70
2019-03-30T08:59:48.136Z,69.50
2019-03-30T09:01:53.416Z,70.40
2019-03-30T09:04:00.580Z,70.00
2019-03-30T09:06:06.423Z,68.90
2019-03-30T09:08:11.838Z,66.70
2019-03-30T09:10:17.637Z,67.60
2019-03-30T09:12:22.978Z,65.80
2019-03-30T09:14:28.317Z,63.20
2019-03-30T09:16:33.641Z,65.00
2019-03-30T09:18:38.934Z,65.00
2019-03-30T09:20:44.606Z,64.60
2019-03-30T09:22:50.399Z,64.50
2019-03-30T09:24:56.776Z,63.10
2019-03-30T09:27:02.430Z,62.90
2019-03-30T09:29:08.394Z,61.70
2019-03-30T09:31:14.136Z,60.00
2019-03-30T09:33:20.812Z,61.70
2019-03-30T09:35:26.361Z,61.00
2019-03-30T09:37:31.915Z,59.70
2019-03-30T09:39:37.179Z,61.30
2019-03-30T09:41:42.870Z,59.80
2019-03-30T09:43:48.315Z,58.80
2019-03-30T09:45:53.935Z,57.30
2019-03-30T09:47:59.261Z,59.70
2019-03-30T09:50:04.698Z,58.20
2019-03-30T09:52:10.034Z,56.40
2019-03-30T09:54:23.483Z,58.80
2019-03-30T09:56:24.523Z,58.60
2019-03-30T09:58:30.933Z,58.30
2019-03-30T10:00:36.279Z,57.00
2019-03-30T10:02:41.603Z,56.10
2019-03-30T10:04:46.947Z,56.80
2019-03-30T10:06:52.355Z,55.20
2019-03-30T10:08:57.741Z,55.70
2019-03-30T10:11:12.438Z,56.50
2019-03-30T10:13:17.716Z,53.50
2019-03-30T10:15:23.552Z,53.20
2019-03-30T10:17:28.840Z,53.80
2019-03-30T10:19:34.504Z,53.40
2019-03-30T10:21:40.050Z,54.10
2019-03-30T10:23:47.954Z,54.00
2019-03-30T10:25:53.673Z,53.10
2019-03-30T10:27:59.084Z,52.60
2019-03-30T10:30:04.526Z,53.00
2019-03-30T10:32:09.957Z,53.90
2019-03-30T10:34:15.828Z,52.10
2019-03-30T10:36:21.432Z,53.20
2019-03-30T10:38:26.774Z,52.90
2019-03-30T10:40:32.088Z,52.30
2019-03-30T10:42:37.437Z,51.00
2019-03-30T10:44:42.744Z,51.40
2019-03-30T10:46:48.019Z,51.10
2019-03-30T10:48:53.393Z,51.20
2019-03-30T10:50:58.665Z,51.00
2019-03-30T10:53:03.957Z,50.60
2019-03-30T10:55:10.642Z,49.30
2019-03-30T10:57:16.261Z,48.30
2019-03-30T10:59:21.594Z,49.40
2019-03-30T11:01:27.127Z,48.70
2019-03-30T11:03:32.618Z,49.00
2019-03-30T11:05:38.542Z,48.20
2019-03-30T11:07:43.914Z,49.10
2019-03-30T11:09:50.409Z,48.40
2019-03-30T11:11:56.112Z,48.30
2019-03-30T11:14:01.446Z,48.00
2019-03-30T11:16:06.738Z,48.70
2019-03-30T11:18:13.540Z,47.60
2019-03-30T11:20:21.590Z,47.80
2019-03-30T11:22:26.905Z,48.40
2019-03-30T11:24:34.156Z,48.10
2019-03-30T11:26:39.517Z,47.70
2019-03-30T11:28:45.328Z,47.50
2019-03-30T11:30:50.911Z,47.40
2019-03-30T11:32:56.206Z,47.60
2019-03-30T11:35:01.545Z,46.30
2019-03-30T11:37:07.015Z,46.30
2019-03-30T11:39:12.935Z,46.90
2019-03-30T11:41:18.213Z,49.00
2019-03-30T11:43:23.483Z,49.60
2019-03-30T11:45:28.962Z,49.90
2019-03-30T11:47:34.276Z,49.10
2019-03-30T11:49:39.650Z,48.00
2019-03-30T11:51:44.977Z,49.50
2019-03-30T11:53:50.776Z,48.80
2019-03-30T11:55:56.265Z,49.90
2019-03-30T11:58:01.581Z,48.70
2019-03-30T12:00:07.371Z,49.30
2019-03-30T12:02:26.918Z,51.50
2019-03-30T12:04:20.089Z,49.60
2019-03-30T12:06:25.416Z,48.50
2019-03-30T12:08:31.098Z,49.70
2019-03-30T12:10:36.901Z,50.20
2019-03-30T12:12:42.272Z,49.60
2019-03-30T12:14:47.558Z,49.30
2019-03-30T12:16:52.823Z,48.50
2019-03-30T12:18:58.316Z,50.20
2019-03-30T12:21:04.040Z,48.20
2019-03-30T12:23:09.360Z,46.00
2019-03-30T12:25:14.700Z,46.00
2019-03-30T12:27:20.588Z,47.30
2019-03-30T12:29:25.882Z,46.80
2019-03-30T12:31:31.258Z,45.60
2019-03-30T12:33:36.562Z,45.10
2019-03-30T12:35:41.900Z,44.90
2019-03-30T12:37:47.209Z,46.30
2019-03-30T12:39:52.506Z,45.40
2019-03-30T12:41:58.276Z,45.20
2019-03-30T12:44:03.538Z,47.20
2019-03-30T12:46:08.895Z,45.50
2019-03-30T12:48:14.401Z,45.00
2019-03-30T12:50:19.752Z,44.70
2019-03-30T12:52:26.489Z,44.40
2019-03-30T12:54:32.158Z,45.10
2019-03-30T12:56:37.783Z,46.80
2019-03-30T12:58:43.115Z,46.20
2019-03-30T13:00:48.391Z,49.10
2019-03-30T13:02:53.738Z,48.30
2019-03-30T13:04:59.357Z,48.90
2019-03-30T13:07:04.674Z,48.50
2019-03-30T13:09:10.010Z,48.70
2019-03-30T13:11:15.267Z,49.20
2019-03-30T13:13:20.578Z,49.40
2019-03-30T13:15:25.949Z,49.40
2019-03-30T13:17:31.238Z,49.50
2019-03-30T13:19:36.592Z,49.20
2019-03-30T13:21:52.454Z,51.00
2019-03-30T13:23:48.972Z,51.60
2019-03-30T13:26:03.543Z,51.50
2019-03-30T13:28:01.427Z,51.10
2019-03-30T13:30:07.892Z,49.20
2019-03-30T13:32:13.242Z,50.30
2019-03-30T13:34:18.524Z,49.70
2019-03-30T13:36:38.930Z,49.50
2019-03-30T13:38:44.248Z,50.60
2019-03-30T13:40:49.532Z,49.80
2019-03-30T13:42:54.996Z,50.80
2019-03-30T13:45:03.178Z,51.60
2019-03-30T13:47:07.219Z,51.00
2019-03-30T13:49:12.541Z,50.70
2019-03-30T13:51:18.147Z,51.10
2019-03-30T13:53:23.480Z,51.80
2019-03-30T13:55:29.111Z,49.90
2019-03-30T13:57:34.466Z,50.90
2019-03-30T13:59:39.805Z,50.30
2019-03-30T14:01:45.256Z,50.70
2019-03-30T14:03:50.534Z,51.80
2019-03-30T14:05:56.039Z,49.50
2019-03-30T14:08:01.333Z,50.00
2019-03-30T14:10:07.387Z,51.40
2019-03-30T14:12:12.691Z,50.50
2019-03-30T14:14:17.947Z,51.20
2019-03-30T14:16:23.290Z,51.40
2019-03-30T14:18:28.574Z,51.50
2019-03-30T14:20:33.891Z,51.90
2019-03-30T14:22:39.353Z,51.20
2019-03-30T14:24:44.688Z,50.70
2019-03-30T14:26:49.967Z,50.60
2019-03-30T14:28:55.593Z,52.90
2019-03-30T14:31:01.041Z,53.70
2019-03-30T14:33:06.368Z,52.90
2019-03-30T14:35:12.077Z,53.60
2019-03-30T14:37:17.686Z,53.80
2019-03-30T14:39:23.033Z,54.70
2019-03-30T14:41:28.523Z,54.40
2019-03-30T14:43:33.825Z,55.70
2019-03-30T14:45:39.151Z,54.80
2019-03-30T14:47:44.465Z,54.40
2019-03-30T14:49:49.790Z,54.70
2019-03-30T14:51:55.091Z,53.70
2019-03-30T14:54:00.436Z,54.50
2019-03-30T14:56:05.935Z,54.80
2019-03-30T14:58:11.211Z,54.80
2019-03-30T15:00:17.693Z,54.40
2019-03-30T15:02:23.115Z,53.90
2019-03-30T15:04:28.698Z,54.40
2019-03-30T15:06:34.026Z,54.40
2019-03-30T15:08:39.355Z,54.40
2019-03-30T15:10:44.651Z,55.40
2019-03-30T15:12:49.994Z,56.30
2019-03-30T15:14:55.276Z,55.50
2019-03-30T15:17:00.607Z,56.00
2019-03-30T15:19:05.902Z,55.30
2019-03-30T15:21:11.193Z,55.70
2019-03-30T15:23:16.539Z,55.10
2019-03-30T15:25:22.159Z,54.40
2019-03-30T15:27:27.462Z,54.80
2019-03-30T15:29:32.766Z,55.10
2019-03-30T15:31:38.041Z,55.50
2019-03-30T15:33:43.597Z,55.60
2019-03-30T15:35:48.887Z,56.10
2019-03-30T15:37:54.157Z,56.40
2019-03-30T15:39:59.900Z,56.80
2019-03-30T15:42:05.302Z,56.10
2019-03-30T15:44:10.678Z,56.00
2019-03-30T15:46:16.089Z,55.60
2019-03-30T15:48:21.355Z,55.50
2019-03-30T15:50:26.710Z,56.10
2019-03-30T15:52:32.087Z,55.50
2019-03-30T15:54:37.493Z,55.50
2019-03-30T15:56:42.766Z,53.70
2019-03-30T15:58:48.450Z,54.90
2019-03-30T16:00:53.791Z,54.70
2019-03-30T16:02:59.112Z,55.50
2019-03-30T16:05:04.524Z,55.50
2019-03-30T16:07:09.954Z,56.20
2019-03-30T16:09:15.209Z,56.10
2019-03-30T16:11:21.575Z,56.30
2019-03-30T16:13:27.317Z,56.20
2019-03-30T16:15:32.590Z,56.10
2019-03-30T16:17:37.942Z,56.30
2019-03-30T16:19:43.256Z,57.30
2019-03-30T16:21:49.794Z,56.40
2019-03-30T16:23:55.207Z,56.60
2019-03-30T16:26:00.602Z,56.00
2019-03-30T16:28:05.935Z,56.50
2019-03-30T16:30:11.877Z,57.00
2019-03-30T16:32:17.137Z,56.40
2019-03-30T16:34:22.788Z,56.50
2019-03-30T16:36:28.097Z,55.90
2019-03-30T16:38:33.386Z,55.50
2019-03-30T16:40:38.729Z,56.50
2019-03-30T16:42:44.047Z,55.20
2019-03-30T16:44:49.338Z,56.00
2019-03-30T16:46:57.325Z,55.80
2019-03-30T16:49:01.718Z,56.00
2019-03-30T16:51:07.021Z,56.90
2019-03-30T16:53:12.367Z,56.50
2019-03-30T16:55:18.029Z,56.90
2019-03-30T16:57:23.316Z,56.70
2019-03-30T16:59:28.605Z,56.40
2019-03-30T17:01:33.956Z,56.30
2019-03-30T17:03:39.219Z,56.30
2019-03-30T17:05:44.543Z,56.00
2019-03-30T17:07:49.912Z,56.60
2019-03-30T17:09:55.166Z,58.00
2019-03-30T17:12:01.936Z,57.20
2019-03-30T17:14:07.201Z,57.60
2019-03-30T17:16:12.522Z,58.80
2019-03-30T17:18:17.817Z,59.60
2019-03-30T17:20:23.176Z,60.20
2019-03-30T17:22:28.511Z,60.70
2019-03-30T17:24:33.794Z,61.60
2019-03-30T17:26:39.093Z,61.20
2019-03-30T17:28:44.698Z,61.10
2019-03-30T17:30:50.310Z,61.50
2019-03-30T17:32:55.587Z,62.40
2019-03-30T17:35:00.886Z,62.30
2019-03-30T17:37:06.511Z,62.90
2019-03-30T17:39:12.933Z,64.60
2019-03-30T17:41:18.254Z,64.70
2019-03-30T17:43:23.567Z,65.20
2019-03-30T17:45:28.856Z,64.00
2019-03-30T17:47:34.130Z,65.70
2019-03-30T17:49:39.435Z,65.60
2019-03-30T17:51:44.772Z,64.70
2019-03-30T17:53:50.055Z,65.70
2019-03-30T17:55:55.359Z,65.80
2019-03-30T17:58:12.185Z,67.10
2019-03-30T18:00:09.707Z,68.20
2019-03-30T18:02:15.010Z,69.50
2019-03-30T18:04:20.335Z,70.70
2019-03-30T18:06:25.634Z,70.40
2019-03-30T18:08:30.960Z,72.40
2019-03-30T18:10:36.940Z,72.40
2019-03-30T18:12:42.351Z,72.30
2019-03-30T18:14:47.712Z,73.00
2019-03-30T18:16:53.076Z,74.10
2019-03-30T18:18:58.391Z,73.20
2019-03-30T18:21:03.678Z,73.20
2019-03-30T18:23:08.958Z,75.20
2019-03-30T18:25:14.584Z,76.30
2019-03-30T18:27:20.179Z,78.00
2019-03-30T18:29:25.813Z,78.50
2019-03-30T18:31:31.144Z,79.80
2019-03-30T18:33:36.836Z,80.70
2019-03-30T18:35:42.262Z,80.70
2019-03-30T18:37:47.652Z,81.20
2019-03-30T18:39:53.290Z,82.60
2019-03-30T18:41:58.572Z,82.40
2019-03-30T18:44:04.261Z,82.80
2019-03-30T18:46:09.559Z,83.60
2019-03-30T18:48:18.467Z,84.40
2019-03-30T18:50:24.190Z,85.90
2019-03-30T18:52:29.850Z,85.40
2019-03-30T18:54:35.866Z,87.10
2019-03-30T18:56:41.159Z,88.60
2019-03-30T18:58:46.490Z,89.50
2019-03-30T19:00:52.280Z,89.90
2019-03-30T19:02:57.713Z,89.60
2019-03-30T19:05:03.733Z,90.40
2019-03-30T19:07:09.024Z,91.30
2019-03-30T19:09:14.763Z,92.40
2019-03-30T19:11:20.114Z,92.90
2019-03-30T19:13:25.859Z,93.60
2019-03-30T19:15:32.451Z,94.50
2019-03-30T19:17:37.723Z,94.70
2019-03-30T19:19:43.018Z,95.50
2019-03-30T19:21:48.427Z,96.50
2019-03-30T19:23:53.871Z,97.40
2019-03-30T19:25:59.172Z,98.10
2019-03-30T19:28:04.492Z,98.50
2019-03-30T19:30:11.104Z,99.00
2019-03-30T19:32:16.455Z,99.90
2019-03-30T19:34:21.892Z,99.90
2019-03-30T19:36:27.214Z,99.90
2019-03-30T19:38:32.536Z,99.90
2019-03-30T19:40:38.151Z,99.90
2019-03-30T19:42:44.076Z,99.90
2019-03-30T19:44:49.404Z,99.90
2019-03-30T19:46:54.696Z,99.90
2019-03-30T19:48:59.992Z,99.90
2019-03-30T19:51:05.341Z,99.90
2019-03-30T19:53:10.787Z,99.90
2019-03-30T19:55:16.060Z,99.90
2019-03-30T19:57:21.385Z,99.90
2019-03-30T19:59:26.780Z,99.90
2019-03-30T20:01:32.138Z,99.90
2019-03-30T20:03:37.466Z,99.90
2019-03-30T20:05:44.634Z,99.90
2019-03-30T20:07:50.166Z,99.90
2019-03-30T20:09:55.785Z,99.90
2019-03-30T20:12:01.496Z,99.90
2019-03-30T20:14:06.809Z,99.90
2019-03-30T20:16:12.112Z,99.90
2019-03-30T20:18:17.514Z,99.90
2019-03-30T20:20:23.308Z,99.90
2019-03-30T20:22:28.632Z,99.90
2019-03-30T20:24:34.435Z,99.90
2019-03-30T20:26:39.911Z,99.90
2019-03-30T20:28:45.588Z,99.90
2019-03-30T20:30:50.903Z,99.90
2019-03-30T20:32:56.220Z,99.90
2019-03-30T20:35:01.500Z,99.90
2019-03-30T20:37:06.868Z,99.90
2019-03-30T20:39:12.330Z,99.90
2019-03-30T20:41:17.696Z,99.90
2019-03-30T20:43:23.303Z,99.90
2019-03-30T20:45:28.969Z,99.90
2019-03-30T20:47:34.269Z,99.90
2019-03-30T20:49:40.203Z,99.90
2019-03-30T20:51:46.431Z,99.90
2019-03-30T20:53:52.085Z,99.90
2019-03-30T20:55:57.402Z,99.90
2019-03-30T20:58:05.465Z,99.90
2019-03-30T21:00:11.422Z,99.90
2019-03-30T21:02:16.699Z,99.90
2019-03-30T21:04:22.301Z,99.90
2019-03-30T21:06:27.638Z,99.90
2019-03-30T21:08:33.196Z,99.90
2019-03-30T21:10:38.512Z,99.90
2019-03-30T21:12:43.886Z,99.90
2019-03-30T21:14:49.529Z,99.90
2019-03-30T21:16:54.796Z,99.90
2019-03-30T21:19:00.164Z,99.90
2019-03-30T21:21:08.988Z,99.90
2019-03-30T21:23:12.838Z,99.90
2019-03-30T21:25:18.211Z,99.90
2019-03-30T21:27:23.859Z,99.90
2019-03-30T21:29:29.643Z,99.90
2019-03-30T21:31:35.002Z,99.90
2019-03-30T21:33:40.342Z,99.90
2019-03-30T21:35:45.710Z,99.90
2019-03-30T21:37:51.226Z,99.90
2019-03-30T21:39:56.871Z,99.90
2019-03-30T21:42:02.188Z,99.90
2019-03-30T21:44:21.092Z,99.90
2019-03-30T21:46:14.725Z,99.90
2019-03-30T21:48:20.070Z,99.90
2019-03-30T21:50:25.374Z,99.90
2019-03-30T21:52:30.688Z,99.90
2019-03-30T21:54:35.985Z,99.90
2019-03-30T21:56:41.275Z,99.90
2019-03-30T21:58:46.933Z,99.90
2019-03-30T22:00:52.282Z,99.90
2019-03-30T22:02:57.883Z,99.90
2019-03-30T22:05:03.216Z,99.90
2019-03-30T22:07:08.698Z,99.90
2019-03-30T22:09:13.999Z,99.90
2019-03-30T22:11:20.284Z,99.90
2019-03-30T22:13:26.186Z,99.90
2019-03-30T22:15:31.689Z,99.90
2019-03-30T22:17:37.028Z,99.90
2019-03-30T22:19:42.735Z,99.90
2019-03-30T22:21:48.719Z,99.90
2019-03-30T22:23:54.418Z,99.90
2019-03-30T22:26:00.839Z,99.90
2019-03-30T22:28:06.179Z,99.90
2019-03-30T22:30:24.148Z,99.90
2019-03-30T22:32:19.511Z,99.90
2019-03-30T22:34:24.846Z,99.90
2019-03-30T22:36:30.480Z,99.90
2019-03-30T22:38:36.867Z,99.90
2019-03-30T22:40:42.655Z,99.90
2019-03-30T22:42:47.995Z,99.90
2019-03-30T22:44:55.647Z,99.90
2019-03-30T22:47:01.293Z,99.90
2019-03-30T22:49:08.600Z,99.90
2019-03-30T22:51:14.307Z,99.90
2019-03-30T22:53:19.664Z,99.90
2019-03-30T22:55:25.107Z,99.90
2019-03-30T22:57:30.420Z,99.90
2019-03-30T22:59:35.816Z,99.90
2019-03-30T23:01:41.509Z,99.90
2019-03-30T23:03:57.112Z,99.90
2019-03-30T23:06:04.406Z,99.90
2019-03-30T23:08:11.924Z,99.90
2019-03-30T23:10:39.097Z,99.90
2019-03-30T23:12:40.866Z,99.90
2019-03-30T23:14:47.784Z,99.90
2019-03-30T23:16:53.126Z,99.90
2019-03-30T23:18:58.598Z,99.90
2019-03-30T23:21:04.261Z,99.90
2019-03-30T23:23:09.900Z,99.90
2019-03-30T23:25:15.352Z,99.90
2019-03-30T23:27:20.711Z,99.90
2019-03-30T23:29:26.179Z,99.90
2019-03-30T23:31:31.915Z,99.90
2019-03-30T23:33:37.568Z,99.90
2019-03-30T23:35:42.907Z,99.90
2019-03-30T23:37:48.223Z,99.90
2019-03-30T23:39:53.598Z,99.90
2019-03-30T23:41:58.921Z,99.90
2019-03-30T23:44:04.710Z,99.90
2019-03-30T23:46:10.046Z,99.90
2019-03-30T23:48:15.916Z,99.90
2019-03-30T23:50:21.257Z,99.90
2019-03-30T23:52:26.580Z,99.90
2019-03-30T23:54:31.851Z,99.90
2019-03-30T23:56:37.171Z,99.90
2019-03-30T23:58:42.788Z,99.90
